sensor_id;sensor_type;location;lat;lon;timestamp;P1;durP1;ratioP1;P2;durP2;ratioP2
41323;SDS011;27073;51.128;4.220;2022-09-02T00:01:50;12.00;;;3.58;;
41323;SDS011;27073;51.128;4.220;2022-09-02T00:04:18;7.80;;;3.80;;
41323;SDS011;27073;51.128;4.220;2022-09-02T00:06:48;8.50;;;3.42;;
41323;SDS011;27073;51.128;4.220;2022-09-02T00:09:15;6.68;;;3.30;;
41323;SDS011;27073;51.128;4.220;2022-09-02T00:11:44;7.38;;;2.75;;
41323;SDS011;27073;51.128;4.220;2022-09-02T00:14:13;6.63;;;3.88;;
41323;SDS011;27073;51.128;4.220;2022-09-02T00:16:42;4.50;;;2.72;;
41323;SDS011;27073;51.128;4.220;2022-09-02T00:19:15;9.15;;;3.33;;
41323;SDS011;27073;51.128;4.220;2022-09-02T00:21:43;6.10;;;2.92;;
41323;SDS011;27073;51.128;4.220;2022-09-02T00:24:09;7.45;;;3.92;;
41323;SDS011;27073;51.128;4.220;2022-09-02T00:26:35;10.57;;;3.15;;
41323;SDS011;27073;51.128;4.220;2022-09-02T00:29:01;8.52;;;3.42;;
41323;SDS011;27073;51.128;4.220;2022-09-02T00:31:26;7.85;;;3.78;;
41323;SDS011;27073;51.128;4.220;2022-09-02T00:33:53;6.22;;;3.35;;
41323;SDS011;27073;51.128;4.220;2022-09-02T00:36:19;8.65;;;3.97;;
41323;SDS011;27073;51.128;4.220;2022-09-02T00:38:45;7.50;;;3.42;;
41323;SDS011;27073;51.128;4.220;2022-09-02T00:41:12;12.02;;;3.78;;
41323;SDS011;27073;51.128;4.220;2022-09-02T00:46:13;6.43;;;3.30;;
41323;SDS011;27073;51.128;4.220;2022-09-02T00:48:49;7.30;;;3.08;;
41323;SDS011;27073;51.128;4.220;2022-09-02T00:51:20;10.40;;;3.95;;
41323;SDS011;27073;51.128;4.220;2022-09-02T00:53:46;7.43;;;3.85;;
41323;SDS011;27073;51.128;4.220;2022-09-02T00:56:14;9.43;;;3.17;;
41323;SDS011;27073;51.128;4.220;2022-09-02T00:58:46;7.30;;;3.97;;
41323;SDS011;27073;51.128;4.220;2022-09-02T01:01:14;10.52;;;3.60;;
41323;SDS011;27073;51.128;4.220;2022-09-02T01:03:41;8.00;;;3.58;;
41323;SDS011;27073;51.128;4.220;2022-09-02T01:06:07;7.32;;;3.53;;
41323;SDS011;27073;51.128;4.220;2022-09-02T01:08:36;7.20;;;3.50;;
41323;SDS011;27073;51.128;4.220;2022-09-02T01:11:03;8.82;;;3.58;;
41323;SDS011;27073;51.128;4.220;2022-09-02T01:13:30;9.10;;;3.60;;
41323;SDS011;27073;51.128;4.220;2022-09-02T01:18:57;9.13;;;4.47;;
41323;SDS011;27073;51.128;4.220;2022-09-02T01:21:26;8.23;;;4.00;;
41323;SDS011;27073;51.128;4.220;2022-09-02T01:23:53;6.53;;;4.07;;
41323;SDS011;27073;51.128;4.220;2022-09-02T01:26:19;7.68;;;4.00;;
41323;SDS011;27073;51.128;4.220;2022-09-02T01:28:45;8.48;;;4.45;;
41323;SDS011;27073;51.128;4.220;2022-09-02T01:31:11;8.48;;;4.70;;
41323;SDS011;27073;51.128;4.220;2022-09-02T01:33:37;11.05;;;4.57;;
41323;SDS011;27073;51.128;4.220;2022-09-02T01:36:03;11.50;;;4.55;;
41323;SDS011;27073;51.128;4.220;2022-09-02T01:38:30;8.68;;;4.53;;
41323;SDS011;27073;51.128;4.220;2022-09-02T01:40:56;8.68;;;4.47;;
41323;SDS011;27073;51.128;4.220;2022-09-02T01:43:23;10.65;;;4.38;;
41323;SDS011;27073;51.128;4.220;2022-09-02T01:45:51;11.10;;;4.70;;
41323;SDS011;27073;51.128;4.220;2022-09-02T01:48:21;8.00;;;4.28;;
41323;SDS011;27073;51.128;4.220;2022-09-02T01:51:00;9.38;;;5.45;;
41323;SDS011;27073;51.128;4.220;2022-09-02T01:53:28;11.93;;;4.70;;
41323;SDS011;27073;51.128;4.220;2022-09-02T01:55:55;10.85;;;4.78;;
41323;SDS011;27073;51.128;4.220;2022-09-02T01:58:21;10.90;;;5.13;;
41323;SDS011;27073;51.128;4.220;2022-09-02T02:00:48;11.70;;;5.85;;
41323;SDS011;27073;51.128;4.220;2022-09-02T02:03:15;10.45;;;5.32;;
41323;SDS011;27073;51.128;4.220;2022-09-02T02:05:41;11.10;;;4.65;;
41323;SDS011;27073;51.128;4.220;2022-09-02T02:08:07;10.43;;;5.05;;
41323;SDS011;27073;51.128;4.220;2022-09-02T02:10:33;10.50;;;5.15;;
41323;SDS011;27073;51.128;4.220;2022-09-02T02:13:00;12.07;;;5.22;;
41323;SDS011;27073;51.128;4.220;2022-09-02T02:17:55;11.07;;;4.78;;
41323;SDS011;27073;51.128;4.220;2022-09-02T02:20:21;9.60;;;5.07;;
41323;SDS011;27073;51.128;4.220;2022-09-02T02:22:47;12.77;;;5.13;;
41323;SDS011;27073;51.128;4.220;2022-09-02T02:25:15;11.27;;;5.38;;
41323;SDS011;27073;51.128;4.220;2022-09-02T02:27:42;10.77;;;5.50;;
41323;SDS011;27073;51.128;4.220;2022-09-02T02:30:09;9.95;;;5.90;;
41323;SDS011;27073;51.128;4.220;2022-09-02T02:32:36;11.68;;;4.97;;
41323;SDS011;27073;51.128;4.220;2022-09-02T02:35:02;15.73;;;6.40;;
41323;SDS011;27073;51.128;4.220;2022-09-02T02:37:30;12.27;;;5.60;;
41323;SDS011;27073;51.128;4.220;2022-09-02T02:39:56;11.35;;;5.57;;
41323;SDS011;27073;51.128;4.220;2022-09-02T02:42:25;13.95;;;5.10;;
41323;SDS011;27073;51.128;4.220;2022-09-02T02:44:51;12.43;;;6.63;;
41323;SDS011;27073;51.128;4.220;2022-09-02T02:47:17;10.60;;;5.65;;
41323;SDS011;27073;51.128;4.220;2022-09-02T02:49:43;10.75;;;6.15;;
41323;SDS011;27073;51.128;4.220;2022-09-02T02:52:09;10.65;;;5.88;;
41323;SDS011;27073;51.128;4.220;2022-09-02T02:54:36;14.77;;;6.28;;
41323;SDS011;27073;51.128;4.220;2022-09-02T02:57:04;11.15;;;6.00;;
41323;SDS011;27073;51.128;4.220;2022-09-02T02:59:31;14.63;;;5.68;;
41323;SDS011;27073;51.128;4.220;2022-09-02T03:01:57;10.30;;;5.65;;
41323;SDS011;27073;51.128;4.220;2022-09-02T03:04:23;16.48;;;6.30;;
41323;SDS011;27073;51.128;4.220;2022-09-02T03:06:50;11.40;;;5.50;;
41323;SDS011;27073;51.128;4.220;2022-09-02T03:09:16;11.82;;;5.60;;
41323;SDS011;27073;51.128;4.220;2022-09-02T03:11:44;9.85;;;6.20;;
41323;SDS011;27073;51.128;4.220;2022-09-02T03:14:11;13.43;;;5.70;;
41323;SDS011;27073;51.128;4.220;2022-09-02T03:16:36;12.75;;;5.78;;
41323;SDS011;27073;51.128;4.220;2022-09-02T03:19:03;12.23;;;6.20;;
41323;SDS011;27073;51.128;4.220;2022-09-02T03:21:30;9.20;;;5.22;;
41323;SDS011;27073;51.128;4.220;2022-09-02T03:23:56;11.68;;;5.60;;
41323;SDS011;27073;51.128;4.220;2022-09-02T03:26:22;9.45;;;5.32;;
41323;SDS011;27073;51.128;4.220;2022-09-02T03:28:52;10.30;;;5.63;;
41323;SDS011;27073;51.128;4.220;2022-09-02T03:31:22;11.10;;;5.43;;
41323;SDS011;27073;51.128;4.220;2022-09-02T03:33:48;9.65;;;5.05;;
41323;SDS011;27073;51.128;4.220;2022-09-02T03:38:58;11.10;;;5.40;;
41323;SDS011;27073;51.128;4.220;2022-09-02T03:41:27;11.35;;;5.45;;
41323;SDS011;27073;51.128;4.220;2022-09-02T03:43:53;13.45;;;4.97;;
41323;SDS011;27073;51.128;4.220;2022-09-02T03:46:20;9.32;;;5.50;;
41323;SDS011;27073;51.128;4.220;2022-09-02T03:48:46;11.85;;;5.43;;
41323;SDS011;27073;51.128;4.220;2022-09-02T03:51:17;9.85;;;4.88;;
41323;SDS011;27073;51.128;4.220;2022-09-02T03:53:44;11.10;;;5.55;;
41323;SDS011;27073;51.128;4.220;2022-09-02T03:56:11;9.15;;;5.22;;
41323;SDS011;27073;51.128;4.220;2022-09-02T03:58:40;10.23;;;5.22;;
41323;SDS011;27073;51.128;4.220;2022-09-02T04:01:07;14.98;;;5.82;;
41323;SDS011;27073;51.128;4.220;2022-09-02T04:03:37;11.10;;;5.72;;
41323;SDS011;27073;51.128;4.220;2022-09-02T04:06:03;11.32;;;5.43;;
41323;SDS011;27073;51.128;4.220;2022-09-02T04:08:30;9.13;;;4.93;;
41323;SDS011;27073;51.128;4.220;2022-09-02T04:11:03;10.32;;;5.30;;
41323;SDS011;27073;51.128;4.220;2022-09-02T04:13:30;10.70;;;4.82;;
41323;SDS011;27073;51.128;4.220;2022-09-02T04:15:56;11.75;;;4.95;;
41323;SDS011;27073;51.128;4.220;2022-09-02T04:18:22;12.57;;;5.20;;
41323;SDS011;27073;51.128;4.220;2022-09-02T04:20:51;11.82;;;5.35;;
41323;SDS011;27073;51.128;4.220;2022-09-02T04:23:18;8.82;;;4.75;;
41323;SDS011;27073;51.128;4.220;2022-09-02T04:25:45;8.18;;;4.88;;
41323;SDS011;27073;51.128;4.220;2022-09-02T04:28:13;9.77;;;5.53;;
41323;SDS011;27073;51.128;4.220;2022-09-02T04:30:40;11.05;;;5.03;;
41323;SDS011;27073;51.128;4.220;2022-09-02T04:33:07;8.45;;;5.13;;
41323;SDS011;27073;51.128;4.220;2022-09-02T04:35:33;10.93;;;4.95;;
41323;SDS011;27073;51.128;4.220;2022-09-02T04:38:00;8.68;;;5.30;;
41323;SDS011;27073;51.128;4.220;2022-09-02T04:40:28;10.40;;;5.35;;
41323;SDS011;27073;51.128;4.220;2022-09-02T04:42:54;11.00;;;5.07;;
41323;SDS011;27073;51.128;4.220;2022-09-02T04:45:20;10.85;;;4.95;;
41323;SDS011;27073;51.128;4.220;2022-09-02T04:47:46;11.50;;;5.20;;
41323;SDS011;27073;51.128;4.220;2022-09-02T04:50:13;8.38;;;4.80;;
41323;SDS011;27073;51.128;4.220;2022-09-02T04:52:55;9.95;;;5.28;;
41323;SDS011;27073;51.128;4.220;2022-09-02T04:55:21;7.97;;;4.53;;
41323;SDS011;27073;51.128;4.220;2022-09-02T04:57:48;7.85;;;4.30;;
41323;SDS011;27073;51.128;4.220;2022-09-02T05:00:14;10.52;;;5.43;;
41323;SDS011;27073;51.128;4.220;2022-09-02T05:02:40;10.70;;;5.00;;
41323;SDS011;27073;51.128;4.220;2022-09-02T05:05:07;9.82;;;4.53;;
41323;SDS011;27073;51.128;4.220;2022-09-02T05:07:37;12.07;;;4.93;;
41323;SDS011;27073;51.128;4.220;2022-09-02T05:10:04;11.45;;;4.65;;
41323;SDS011;27073;51.128;4.220;2022-09-02T05:12:34;13.30;;;4.57;;
41323;SDS011;27073;51.128;4.220;2022-09-02T05:15:01;8.05;;;4.50;;
41323;SDS011;27073;51.128;4.220;2022-09-02T05:17:29;7.55;;;4.53;;
41323;SDS011;27073;51.128;4.220;2022-09-02T05:19:57;13.35;;;4.25;;
41323;SDS011;27073;51.128;4.220;2022-09-02T05:22:23;10.82;;;4.20;;
41323;SDS011;27073;51.128;4.220;2022-09-02T05:24:54;8.40;;;4.32;;
41323;SDS011;27073;51.128;4.220;2022-09-02T05:27:21;8.15;;;4.40;;
41323;SDS011;27073;51.128;4.220;2022-09-02T05:29:48;7.72;;;4.05;;
41323;SDS011;27073;51.128;4.220;2022-09-02T05:32:17;8.95;;;3.63;;
41323;SDS011;27073;51.128;4.220;2022-09-02T05:34:46;11.88;;;4.18;;
41323;SDS011;27073;51.128;4.220;2022-09-02T05:37:12;8.75;;;4.60;;
41323;SDS011;27073;51.128;4.220;2022-09-02T05:39:38;10.60;;;4.70;;
41323;SDS011;27073;51.128;4.220;2022-09-02T05:42:05;14.60;;;4.72;;
41323;SDS011;27073;51.128;4.220;2022-09-02T05:44:31;11.27;;;4.45;;
41323;SDS011;27073;51.128;4.220;2022-09-02T05:47:00;8.45;;;4.18;;
41323;SDS011;27073;51.128;4.220;2022-09-02T05:49:26;8.00;;;4.10;;
41323;SDS011;27073;51.128;4.220;2022-09-02T05:51:58;11.90;;;4.80;;
41323;SDS011;27073;51.128;4.220;2022-09-02T05:54:36;10.77;;;5.55;;
41323;SDS011;27073;51.128;4.220;2022-09-02T05:57:08;11.20;;;4.68;;
41323;SDS011;27073;51.128;4.220;2022-09-02T05:59:40;10.73;;;3.90;;
41323;SDS011;27073;51.128;4.220;2022-09-02T06:02:08;7.45;;;4.03;;
41323;SDS011;27073;51.128;4.220;2022-09-02T06:04:41;7.70;;;3.55;;
41323;SDS011;27073;51.128;4.220;2022-09-02T06:07:13;9.27;;;4.47;;
41323;SDS011;27073;51.128;4.220;2022-09-02T06:09:43;9.13;;;4.10;;
41323;SDS011;27073;51.128;4.220;2022-09-02T06:12:10;7.95;;;4.07;;
41323;SDS011;27073;51.128;4.220;2022-09-02T06:14:37;43.65;;;14.05;;
41323;SDS011;27073;51.128;4.220;2022-09-02T06:17:06;93.45;;;30.33;;
41323;SDS011;27073;51.128;4.220;2022-09-02T06:19:38;119.28;;;36.42;;
41323;SDS011;27073;51.128;4.220;2022-09-02T06:22:06;35.92;;;11.35;;
41323;SDS011;27073;51.128;4.220;2022-09-02T06:24:35;20.13;;;8.95;;
41323;SDS011;27073;51.128;4.220;2022-09-02T06:27:06;48.40;;;18.00;;
41323;SDS011;27073;51.128;4.220;2022-09-02T06:29:33;26.25;;;10.52;;
41323;SDS011;27073;51.128;4.220;2022-09-02T06:31:59;17.58;;;5.18;;
41323;SDS011;27073;51.128;4.220;2022-09-02T06:34:26;12.30;;;3.65;;
41323;SDS011;27073;51.128;4.220;2022-09-02T06:36:54;14.68;;;4.47;;
41323;SDS011;27073;51.128;4.220;2022-09-02T06:39:22;12.13;;;4.32;;
41323;SDS011;27073;51.128;4.220;2022-09-02T06:41:50;10.52;;;4.72;;
41323;SDS011;27073;51.128;4.220;2022-09-02T06:44:19;22.23;;;4.85;;
41323;SDS011;27073;51.128;4.220;2022-09-02T06:46:56;11.48;;;3.67;;
41323;SDS011;27073;51.128;4.220;2022-09-02T06:49:24;12.20;;;4.38;;
41323;SDS011;27073;51.128;4.220;2022-09-02T06:51:54;14.25;;;3.53;;
41323;SDS011;27073;51.128;4.220;2022-09-02T06:54:26;11.32;;;3.50;;
41323;SDS011;27073;51.128;4.220;2022-09-02T06:57:02;9.30;;;4.00;;
41323;SDS011;27073;51.128;4.220;2022-09-02T06:59:28;13.60;;;3.75;;
41323;SDS011;27073;51.128;4.220;2022-09-02T07:01:56;5.43;;;3.00;;
41323;SDS011;27073;51.128;4.220;2022-09-02T07:04:23;13.70;;;3.63;;
41323;SDS011;27073;51.128;4.220;2022-09-02T07:07:11;7.03;;;3.42;;
41323;SDS011;27073;51.128;4.220;2022-09-02T07:09:43;9.80;;;3.42;;
41323;SDS011;27073;51.128;4.220;2022-09-02T07:12:13;9.52;;;3.10;;
41323;SDS011;27073;51.128;4.220;2022-09-02T07:14:47;11.38;;;3.05;;
41323;SDS011;27073;51.128;4.220;2022-09-02T07:17:19;5.55;;;2.95;;
41323;SDS011;27073;51.128;4.220;2022-09-02T07:19:51;6.28;;;3.13;;
41323;SDS011;27073;51.128;4.220;2022-09-02T07:22:20;6.90;;;2.78;;
41323;SDS011;27073;51.128;4.220;2022-09-02T07:24:46;9.80;;;3.83;;
41323;SDS011;27073;51.128;4.220;2022-09-02T07:27:12;8.13;;;2.67;;
41323;SDS011;27073;51.128;4.220;2022-09-02T07:29:40;7.70;;;3.38;;
41323;SDS011;27073;51.128;4.220;2022-09-02T07:32:10;8.93;;;3.08;;
41323;SDS011;27073;51.128;4.220;2022-09-02T07:34:36;7.20;;;2.90;;
41323;SDS011;27073;51.128;4.220;2022-09-02T07:37:02;10.80;;;3.05;;
41323;SDS011;27073;51.128;4.220;2022-09-02T07:39:28;7.03;;;3.08;;
41323;SDS011;27073;51.128;4.220;2022-09-02T07:41:54;10.93;;;3.10;;
41323;SDS011;27073;51.128;4.220;2022-09-02T07:44:21;12.45;;;3.33;;
41323;SDS011;27073;51.128;4.220;2022-09-02T07:46:48;9.50;;;3.10;;
41323;SDS011;27073;51.128;4.220;2022-09-02T07:49:18;10.48;;;2.80;;
41323;SDS011;27073;51.128;4.220;2022-09-02T07:51:48;11.97;;;3.67;;
41323;SDS011;27073;51.128;4.220;2022-09-02T07:54:17;11.68;;;2.90;;
41323;SDS011;27073;51.128;4.220;2022-09-02T07:56:47;7.38;;;2.85;;
41323;SDS011;27073;51.128;4.220;2022-09-02T07:59:14;7.20;;;3.13;;
41323;SDS011;27073;51.128;4.220;2022-09-02T08:01:42;9.00;;;2.88;;
41323;SDS011;27073;51.128;4.220;2022-09-02T08:04:08;7.53;;;2.50;;
41323;SDS011;27073;51.128;4.220;2022-09-02T08:06:35;7.63;;;2.67;;
41323;SDS011;27073;51.128;4.220;2022-09-02T08:09:06;5.22;;;2.45;;
41323;SDS011;27073;51.128;4.220;2022-09-02T08:11:36;5.13;;;2.55;;
41323;SDS011;27073;51.128;4.220;2022-09-02T08:14:04;5.50;;;2.50;;
41323;SDS011;27073;51.128;4.220;2022-09-02T08:16:33;5.60;;;2.60;;
41323;SDS011;27073;51.128;4.220;2022-09-02T08:18:59;5.53;;;2.38;;
41323;SDS011;27073;51.128;4.220;2022-09-02T08:21:26;3.90;;;2.38;;
41323;SDS011;27073;51.128;4.220;2022-09-02T08:23:51;5.13;;;2.05;;
41323;SDS011;27073;51.128;4.220;2022-09-02T08:26:17;5.50;;;2.10;;
41323;SDS011;27073;51.128;4.220;2022-09-02T08:28:43;5.80;;;2.22;;
41323;SDS011;27073;51.128;4.220;2022-09-02T08:31:10;4.82;;;2.30;;
41323;SDS011;27073;51.128;4.220;2022-09-02T08:33:36;6.80;;;2.33;;
41323;SDS011;27073;51.128;4.220;2022-09-02T08:36:06;6.95;;;2.17;;
41323;SDS011;27073;51.128;4.220;2022-09-02T08:38:35;3.97;;;1.85;;
41323;SDS011;27073;51.128;4.220;2022-09-02T08:41:00;3.05;;;1.80;;
41323;SDS011;27073;51.128;4.220;2022-09-02T08:43:29;4.57;;;1.92;;
41323;SDS011;27073;51.128;4.220;2022-09-02T08:46:04;5.85;;;2.10;;
41323;SDS011;27073;51.128;4.220;2022-09-02T08:51:15;8.25;;;2.63;;
41323;SDS011;27073;51.128;4.220;2022-09-02T08:53:50;5.20;;;1.90;;
41323;SDS011;27073;51.128;4.220;2022-09-02T08:56:23;9.35;;;2.47;;
41323;SDS011;27073;51.128;4.220;2022-09-02T08:58:50;5.07;;;2.40;;
41323;SDS011;27073;51.128;4.220;2022-09-02T09:17:46;5.35;;;1.98;;
41323;SDS011;27073;51.128;4.220;2022-09-02T09:20:18;6.28;;;2.40;;
41323;SDS011;27073;51.128;4.220;2022-09-02T09:22:47;4.47;;;1.60;;
41323;SDS011;27073;51.128;4.220;2022-09-02T09:25:17;11.77;;;2.60;;
41323;SDS011;27073;51.128;4.220;2022-09-02T09:27:43;5.28;;;3.13;;
41323;SDS011;27073;51.128;4.220;2022-09-02T09:30:10;6.97;;;2.63;;
41323;SDS011;27073;51.128;4.220;2022-09-02T09:32:46;4.43;;;1.85;;
41323;SDS011;27073;51.128;4.220;2022-09-02T09:35:17;6.50;;;2.30;;
41323;SDS011;27073;51.128;4.220;2022-09-02T09:37:44;6.07;;;2.00;;
41323;SDS011;27073;51.128;4.220;2022-09-02T09:42:57;4.43;;;2.40;;
41323;SDS011;27073;51.128;4.220;2022-09-02T09:50:45;5.60;;;2.25;;
41323;SDS011;27073;51.128;4.220;2022-09-02T09:53:17;4.63;;;2.60;;
41323;SDS011;27073;51.128;4.220;2022-09-02T09:55:58;5.25;;;1.90;;
41323;SDS011;27073;51.128;4.220;2022-09-02T09:58:47;4.85;;;2.08;;
41323;SDS011;27073;51.128;4.220;2022-09-02T10:03:48;9.35;;;2.10;;
41323;SDS011;27073;51.128;4.220;2022-09-02T10:11:19;6.05;;;2.35;;
41323;SDS011;27073;51.128;4.220;2022-09-02T10:13:47;7.73;;;2.37;;
41323;SDS011;27073;51.128;4.220;2022-09-02T10:19:00;5.82;;;2.20;;
41323;SDS011;27073;51.128;4.220;2022-09-02T10:26:52;3.53;;;1.80;;
41323;SDS011;27073;51.128;4.220;2022-09-02T10:37:19;3.35;;;1.75;;
41323;SDS011;27073;51.128;4.220;2022-09-02T10:42:42;3.95;;;1.80;;
41323;SDS011;27073;51.128;4.220;2022-09-02T10:45:36;4.90;;;1.90;;
41323;SDS011;27073;51.128;4.220;2022-09-02T10:51:45;4.03;;;1.77;;
41323;SDS011;27073;51.128;4.220;2022-09-02T10:54:16;2.50;;;1.85;;
41323;SDS011;27073;51.128;4.220;2022-09-02T10:57:47;4.40;;;2.00;;
41323;SDS011;27073;51.128;4.220;2022-09-02T11:00:14;4.55;;;1.83;;
41323;SDS011;27073;51.128;4.220;2022-09-02T11:02:46;4.03;;;2.67;;
41323;SDS011;27073;51.128;4.220;2022-09-02T11:05:15;3.70;;;2.05;;
41323;SDS011;27073;51.128;4.220;2022-09-02T11:07:54;8.43;;;2.05;;
41323;SDS011;27073;51.128;4.220;2022-09-02T11:10:34;2.67;;;1.58;;
41323;SDS011;27073;51.128;4.220;2022-09-02T11:13:11;2.67;;;1.58;;
41323;SDS011;27073;51.128;4.220;2022-09-02T11:15:58;3.78;;;1.70;;
41323;SDS011;27073;51.128;4.220;2022-09-02T11:26:48;2.67;;;1.50;;
41323;SDS011;27073;51.128;4.220;2022-09-02T11:29:37;5.97;;;1.95;;
41323;SDS011;27073;51.128;4.220;2022-09-02T11:32:20;3.72;;;1.70;;
41323;SDS011;27073;51.128;4.220;2022-09-02T11:35:28;5.03;;;1.50;;
41323;SDS011;27073;51.128;4.220;2022-09-02T11:41:12;7.67;;;1.30;;
41323;SDS011;27073;51.128;4.220;2022-09-02T11:43:59;2.88;;;1.60;;
41323;SDS011;27073;51.128;4.220;2022-09-02T11:52:43;3.83;;;1.33;;
41323;SDS011;27073;51.128;4.220;2022-09-02T11:55:33;2.30;;;1.45;;
41323;SDS011;27073;51.128;4.220;2022-09-02T11:58:31;6.95;;;1.40;;
41323;SDS011;27073;51.128;4.220;2022-09-02T12:03:49;2.83;;;1.30;;
41323;SDS011;27073;51.128;4.220;2022-09-02T12:06:20;3.88;;;1.30;;
41323;SDS011;27073;51.128;4.220;2022-09-02T12:14:07;2.90;;;1.15;;
41323;SDS011;27073;51.128;4.220;2022-09-02T12:16:43;2.60;;;1.13;;
41323;SDS011;27073;51.128;4.220;2022-09-02T12:19:27;3.95;;;1.10;;
41323;SDS011;27073;51.128;4.220;2022-09-02T12:24:55;2.22;;;0.80;;
41323;SDS011;27073;51.128;4.220;2022-09-02T12:27:29;4.30;;;1.05;;
41323;SDS011;27073;51.128;4.220;2022-09-02T12:29:56;3.78;;;0.82;;
41323;SDS011;27073;51.128;4.220;2022-09-02T12:35:11;1.63;;;0.60;;
41323;SDS011;27073;51.128;4.220;2022-09-02T12:37:56;3.17;;;1.10;;
41323;SDS011;27073;51.128;4.220;2022-09-02T12:43:26;2.70;;;1.30;;
41323;SDS011;27073;51.128;4.220;2022-09-02T12:57:05;4.30;;;1.10;;
41323;SDS011;27073;51.128;4.220;2022-09-02T12:59:32;4.85;;;1.20;;
41323;SDS011;27073;51.128;4.220;2022-09-02T13:26:53;2.58;;;0.80;;
41323;SDS011;27073;51.128;4.220;2022-09-02T13:32:21;3.22;;;1.00;;
41323;SDS011;27073;51.128;4.220;2022-09-02T13:34:50;2.78;;;0.90;;
41323;SDS011;27073;51.128;4.220;2022-09-02T13:37:35;2.50;;;1.23;;
41323;SDS011;27073;51.128;4.220;2022-09-02T13:40:04;3.17;;;0.93;;
41323;SDS011;27073;51.128;4.220;2022-09-02T13:42:45;2.72;;;1.00;;
41323;SDS011;27073;51.128;4.220;2022-09-02T13:45:17;5.13;;;1.00;;
41323;SDS011;27073;51.128;4.220;2022-09-02T13:47:45;2.47;;;1.10;;
41323;SDS011;27073;51.128;4.220;2022-09-02T13:50:14;4.85;;;1.13;;
41323;SDS011;27073;51.128;4.220;2022-09-02T13:52:42;2.22;;;0.93;;
41323;SDS011;27073;51.128;4.220;2022-09-02T13:55:12;4.80;;;0.77;;
41323;SDS011;27073;51.128;4.220;2022-09-02T13:57:42;2.15;;;0.90;;
41323;SDS011;27073;51.128;4.220;2022-09-02T14:00:14;2.80;;;0.82;;
41323;SDS011;27073;51.128;4.220;2022-09-02T14:02:56;2.03;;;0.90;;
41323;SDS011;27073;51.128;4.220;2022-09-02T14:05:46;4.57;;;0.93;;
41323;SDS011;27073;51.128;4.220;2022-09-02T14:08:17;3.08;;;0.77;;
41323;SDS011;27073;51.128;4.220;2022-09-02T14:10:45;4.13;;;0.70;;
41323;SDS011;27073;51.128;4.220;2022-09-02T14:13:13;3.70;;;0.75;;
41323;SDS011;27073;51.128;4.220;2022-09-02T14:15:40;2.78;;;1.02;;
41323;SDS011;27073;51.128;4.220;2022-09-02T14:23:30;2.85;;;0.65;;
41323;SDS011;27073;51.128;4.220;2022-09-02T14:26:00;2.67;;;0.90;;
41323;SDS011;27073;51.128;4.220;2022-09-02T14:28:31;2.65;;;0.80;;
41323;SDS011;27073;51.128;4.220;2022-09-02T14:36:12;1.10;;;0.50;;
41323;SDS011;27073;51.128;4.220;2022-09-02T14:39:10;1.88;;;0.70;;
41323;SDS011;27073;51.128;4.220;2022-09-02T14:41:50;8.35;;;0.70;;
41323;SDS011;27073;51.128;4.220;2022-09-02T14:44:31;5.07;;;1.00;;
41323;SDS011;27073;51.128;4.220;2022-09-02T14:47:00;8.18;;;0.85;;
41323;SDS011;27073;51.128;4.220;2022-09-02T14:49:36;6.10;;;0.90;;
41323;SDS011;27073;51.128;4.220;2022-09-02T14:52:26;3.08;;;0.70;;
41323;SDS011;27073;51.128;4.220;2022-09-02T14:54:55;3.80;;;0.70;;
41323;SDS011;27073;51.128;4.220;2022-09-02T14:57:29;3.83;;;0.80;;
41323;SDS011;27073;51.128;4.220;2022-09-02T14:59:57;3.35;;;0.82;;
41323;SDS011;27073;51.128;4.220;2022-09-02T15:02:30;3.28;;;0.80;;
41323;SDS011;27073;51.128;4.220;2022-09-02T15:04:59;1.58;;;0.73;;
41323;SDS011;27073;51.128;4.220;2022-09-02T15:07:26;2.63;;;0.95;;
41323;SDS011;27073;51.128;4.220;2022-09-02T15:09:52;2.25;;;0.90;;
41323;SDS011;27073;51.128;4.220;2022-09-02T15:12:19;4.50;;;0.73;;
41323;SDS011;27073;51.128;4.220;2022-09-02T15:14:52;2.42;;;0.90;;
41323;SDS011;27073;51.128;4.220;2022-09-02T15:17:17;1.20;;;0.73;;
41323;SDS011;27073;51.128;4.220;2022-09-02T15:19:44;2.88;;;0.90;;
41323;SDS011;27073;51.128;4.220;2022-09-02T15:22:10;2.60;;;0.80;;
41323;SDS011;27073;51.128;4.220;2022-09-02T15:24:36;2.53;;;0.88;;
41323;SDS011;27073;51.128;4.220;2022-09-02T15:27:02;2.75;;;0.60;;
41323;SDS011;27073;51.128;4.220;2022-09-02T15:29:28;1.63;;;0.70;;
41323;SDS011;27073;51.128;4.220;2022-09-02T15:31:54;2.67;;;0.90;;
41323;SDS011;27073;51.128;4.220;2022-09-02T15:34:20;2.95;;;0.75;;
41323;SDS011;27073;51.128;4.220;2022-09-02T15:36:46;4.32;;;0.90;;
41323;SDS011;27073;51.128;4.220;2022-09-02T15:39:12;3.58;;;0.80;;
41323;SDS011;27073;51.128;4.220;2022-09-02T15:41:37;2.80;;;0.63;;
41323;SDS011;27073;51.128;4.220;2022-09-02T15:44:04;5.07;;;0.85;;
41323;SDS011;27073;51.128;4.220;2022-09-02T15:46:33;2.70;;;0.80;;
41323;SDS011;27073;51.128;4.220;2022-09-02T15:49:02;2.83;;;0.90;;
41323;SDS011;27073;51.128;4.220;2022-09-02T15:51:30;1.95;;;0.70;;
41323;SDS011;27073;51.128;4.220;2022-09-02T15:53:57;1.85;;;0.82;;
41323;SDS011;27073;51.128;4.220;2022-09-02T15:56:31;4.75;;;1.10;;
41323;SDS011;27073;51.128;4.220;2022-09-02T15:58:59;1.63;;;0.80;;
41323;SDS011;27073;51.128;4.220;2022-09-02T16:01:28;2.47;;;1.08;;
41323;SDS011;27073;51.128;4.220;2022-09-02T16:03:56;4.00;;;0.88;;
41323;SDS011;27073;51.128;4.220;2022-09-02T16:06:22;4.07;;;1.70;;
41323;SDS011;27073;51.128;4.220;2022-09-02T16:08:49;1.40;;;0.70;;
41323;SDS011;27073;51.128;4.220;2022-09-02T16:11:15;2.92;;;0.65;;
41323;SDS011;27073;51.128;4.220;2022-09-02T16:13:42;2.95;;;0.70;;
41323;SDS011;27073;51.128;4.220;2022-09-02T16:16:08;3.58;;;1.00;;
41323;SDS011;27073;51.128;4.220;2022-09-02T16:18:36;1.55;;;0.75;;
41323;SDS011;27073;51.128;4.220;2022-09-02T16:21:06;2.92;;;0.80;;
41323;SDS011;27073;51.128;4.220;2022-09-02T16:23:34;5.63;;;0.90;;
41323;SDS011;27073;51.128;4.220;2022-09-02T16:28:34;3.25;;;1.02;;
41323;SDS011;27073;51.128;4.220;2022-09-02T16:31:01;2.90;;;1.05;;
41323;SDS011;27073;51.128;4.220;2022-09-02T16:33:27;3.67;;;1.23;;
41323;SDS011;27073;51.128;4.220;2022-09-02T16:35:53;1.92;;;0.85;;
41323;SDS011;27073;51.128;4.220;2022-09-02T16:38:19;2.50;;;0.77;;
41323;SDS011;27073;51.128;4.220;2022-09-02T16:40:49;3.17;;;1.30;;
41323;SDS011;27073;51.128;4.220;2022-09-02T16:43:16;4.00;;;1.00;;
41323;SDS011;27073;51.128;4.220;2022-09-02T16:45:42;7.43;;;0.93;;
41323;SDS011;27073;51.128;4.220;2022-09-02T16:48:10;3.38;;;1.30;;
41323;SDS011;27073;51.128;4.220;2022-09-02T16:50:36;5.72;;;0.90;;
41323;SDS011;27073;51.128;4.220;2022-09-02T16:53:02;3.25;;;1.02;;
41323;SDS011;27073;51.128;4.220;2022-09-02T16:55:27;5.35;;;1.25;;
41323;SDS011;27073;51.128;4.220;2022-09-02T16:57:54;4.78;;;1.08;;
41323;SDS011;27073;51.128;4.220;2022-09-02T17:00:24;8.63;;;1.15;;
41323;SDS011;27073;51.128;4.220;2022-09-02T17:02:51;13.40;;;1.40;;
41323;SDS011;27073;51.128;4.220;2022-09-02T17:05:17;4.43;;;1.08;;
41323;SDS011;27073;51.128;4.220;2022-09-02T17:07:42;3.45;;;1.25;;
41323;SDS011;27073;51.128;4.220;2022-09-02T17:10:09;3.38;;;0.88;;
41323;SDS011;27073;51.128;4.220;2022-09-02T17:12:35;5.05;;;1.63;;
41323;SDS011;27073;51.128;4.220;2022-09-02T17:15:01;3.45;;;0.98;;
41323;SDS011;27073;51.128;4.220;2022-09-02T17:17:27;2.30;;;1.08;;
41323;SDS011;27073;51.128;4.220;2022-09-02T17:19:53;4.20;;;0.90;;
41323;SDS011;27073;51.128;4.220;2022-09-02T17:22:19;2.47;;;0.90;;
41323;SDS011;27073;51.128;4.220;2022-09-02T17:24:44;2.80;;;1.08;;
41323;SDS011;27073;51.128;4.220;2022-09-02T17:27:10;4.68;;;1.10;;
41323;SDS011;27073;51.128;4.220;2022-09-02T17:29:36;6.47;;;2.03;;
41323;SDS011;27073;51.128;4.220;2022-09-02T17:32:03;5.30;;;1.33;;